Time;durP1;ratioP1;P1;durP2;ratioP2;P2;SDS_P1;SDS_P2;PMS_P1;PMS_P2;Temp;Humidity;BMP_temperature;BMP_pressure;BME280_temperature;BME280_humidity;BME280_pressure;Samples;Min_cycle;Max_cycle;Signal;HPM_P1;HPM_P2
2022/06/22 00:01:24;;;;;;;5.63;1.52;;;;;;;12.79;100.00;100457.09;5202679;28;20210;-74
2022/06/22 00:03:59;;;;;;;4.27;1.53;;;;;;;12.78;100.00;100461.47;5200466;28;20030;-73
2022/06/22 00:06:38;;;;;;;2.70;1.50;;;;;;;12.79;100.00;100460.56;5202599;28;20907;-73
2022/06/22 00:09:30;;;;;;;4.68;1.45;;;;;;;12.83;100.00;100464.72;5201833;28;20031;-74
2022/06/22 00:12:01;;;;;;;3.22;1.35;;;;;;;13.28;100.00;100457.34;5201483;28;20490;-73
2022/06/22 00:14:36;;;;;;;4.53;1.50;;;;;;;13.40;100.00;100452.34;5202781;28;20072;-73
2022/06/22 00:17:17;;;;;;;2.80;1.60;;;;;;;13.34;100.00;100442.16;5201715;28;20025;-74
2022/06/22 00:19:48;;;;;;;3.55;1.33;;;;;;;13.19;100.00;100439.41;5198254;28;20168;-73
2022/06/22 00:22:22;;;;;;;3.88;1.23;;;;;;;12.93;100.00;100450.31;5204470;28;20029;-73
2022/06/22 00:25:09;;;;;;;4.30;1.40;;;;;;;12.93;100.00;100446.81;5202478;28;20025;-73
2022/06/22 00:27:39;;;;;;;2.90;1.20;;;;;;;13.31;100.00;100441.44;5202106;28;20037;-73
2022/06/22 00:30:14;;;;;;;3.05;1.30;;;;;;;13.53;100.00;100431.59;5189610;28;20017;-73
2022/06/22 00:32:59;;;;;;;2.75;1.30;;;;;;;13.23;100.00;100427.88;5196339;28;20075;-73
2022/06/22 00:35:44;;;;;;;3.13;1.38;;;;;;;13.28;100.00;100431.97;5201765;28;20066;-74
2022/06/22 00:38:19;;;;;;;5.47;1.23;;;;;;;13.30;100.00;100432.75;5197494;28;20026;-73
2022/06/22 00:40:54;;;;;;;2.45;1.20;;;;;;;13.52;100.00;100427.25;5201987;28;20112;-73
2022/06/22 00:43:29;;;;;;;4.78;1.33;;;;;;;13.45;100.00;100436.38;5202240;28;20066;-73
2022/06/22 00:46:01;;;;;;;3.22;1.20;;;;;;;13.24;100.00;100430.41;5201500;28;20036;-73
2022/06/22 00:48:34;;;;;;;4.70;1.38;;;;;;;12.85;100.00;100436.66;5200560;28;20041;-73
2022/06/22 00:51:13;;;;;;;4.05;1.30;;;;;;;12.93;100.00;100432.78;5201709;28;20100;-73
2022/06/22 00:53:58;;;;;;;2.13;1.25;;;;;;;12.99;100.00;100453.50;5198179;28;20037;-73
2022/06/22 00:56:44;;;;;;;4.45;1.42;;;;;;;12.55;100.00;100447.72;5201092;28;20419;-73
2022/06/22 00:59:27;;;;;;;2.97;1.40;;;;;;;12.33;100.00;100453.06;5196762;28;20029;-73
2022/06/22 01:02:28;;;;;;;4.30;1.23;;;;;;;12.69;100.00;100450.56;5200396;28;20473;-73
2022/06/22 01:05:05;;;;;;;3.67;1.30;;;;;;;12.67;100.00;100450.63;5200652;28;20068;-74
2022/06/22 01:07:46;;;;;;;3.85;1.33;;;;;;;12.37;100.00;100444.19;5200337;28;20108;-74
2022/06/22 01:10:29;;;;;;;2.55;1.30;;;;;;;12.63;100.00;100441.22;5197343;28;20041;-73
2022/06/22 01:13:23;;;;;;;3.75;1.45;;;;;;;12.72;100.00;100439.94;5201246;28;20025;-73
2022/06/22 01:15:59;;;;;;;3.85;1.20;;;;;;;12.39;100.00;100442.34;5199023;28;20029;-73
2022/06/22 01:18:41;;;;;;;2.63;1.38;;;;;;;12.17;100.00;100446.84;5200025;28;20192;-73
2022/06/22 01:21:18;;;;;;;2.72;1.40;;;;;;;12.48;100.00;100448.94;5197278;28;20060;-73
2022/06/22 01:24:04;;;;;;;2.65;1.20;;;;;;;12.58;100.00;100451.06;5200976;28;20188;-74
2022/06/22 01:27:15;;;;;;;5.97;1.58;;;;;;;12.63;100.00;100441.22;5200276;28;20021;-74
2022/06/22 01:29:54;;;;;;;2.63;1.10;;;;;;;12.21;100.00;100445.78;5197277;28;20029;-74
2022/06/22 01:32:36;;;;;;;2.88;1.10;;;;;;;12.23;100.00;100443.94;5200979;28;20061;-74
2022/06/22 01:35:17;;;;;;;1.88;1.20;;;;;;;12.32;100.00;100440.88;5201087;28;20051;-74
2022/06/22 01:37:47;;;;;;;2.40;1.25;;;;;;;12.14;100.00;100439.09;5197305;28;20124;-73
2022/06/22 01:40:23;;;;;;;4.22;1.35;;;;;;;11.91;100.00;100434.00;5200278;28;20125;-73
2022/06/22 01:43:15;;;;;;;4.28;1.38;;;;;;;11.67;100.00;100429.84;5200890;28;20286;-73
2022/06/22 01:46:11;;;;;;;4.43;1.50;;;;;;;11.96;100.00;100424.19;5212760;28;20411;-73
2022/06/22 01:49:03;;;;;;;2.15;1.00;;;;;;;12.27;100.00;100432.41;5195836;28;20033;-73
2022/06/22 01:51:50;;;;;;;3.85;1.20;;;;;;;12.36;100.00;100425.88;5200470;28;20486;-73
2022/06/22 01:54:26;;;;;;;5.25;1.58;;;;;;;11.91;100.00;100420.91;5197684;28;20028;-74
2022/06/22 01:57:06;;;;;;;5.20;1.58;;;;;;;11.83;100.00;100423.03;5200267;28;20029;-73
2022/06/22 01:59:59;;;;;;;2.70;1.30;;;;;;;11.90;100.00;100416.59;5199984;28;20037;-74
2022/06/22 02:02:42;;;;;;;3.63;1.17;;;;;;;11.83;100.00;100417.78;5198274;28;20038;-73
2022/06/22 02:05:12;;;;;;;3.85;1.70;;;;;;;11.71;100.00;100410.47;5196520;28;20029;-73
2022/06/22 02:07:51;;;;;;;3.75;1.42;;;;;;;11.87;100.00;100405.41;5199663;28;20075;-73
2022/06/22 02:10:34;;;;;;;4.78;1.33;;;;;;;12.14;100.00;100399.78;5199667;28;20052;-74
2022/06/22 02:13:34;;;;;;;3.55;1.25;;;;;;;12.14;100.00;100402.41;5200246;28;20067;-74
2022/06/22 02:16:21;;;;;;;3.65;1.20;;;;;;;12.05;100.00;100407.22;5199103;28;20179;-70
2022/06/22 02:18:58;;;;;;;3.03;1.40;;;;;;;11.80;100.00;100404.81;5196880;28;20221;-74
2022/06/22 02:21:52;;;;;;;4.22;1.35;;;;;;;11.47;100.00;100406.22;5199691;28;20264;-74
2022/06/22 02:24:51;;;;;;;2.08;1.02;;;;;;;11.81;100.00;100398.66;5197318;28;20036;-74
2022/06/22 02:27:29;;;;;;;1.77;1.10;;;;;;;11.84;100.00;100403.78;5194735;28;20048;-74
2022/06/22 02:30:00;;;;;;;2.33;1.30;;;;;;;11.53;100.00;100408.59;5199696;28;20491;-74
2022/06/22 02:32:35;;;;;;;6.18;1.92;;;;;;;11.52;100.00;100393.81;5200059;28;20044;-74
2022/06/22 02:35:08;;;;;;;3.03;1.50;;;;;;;11.60;100.00;100386.50;5200149;28;20029;-73
2022/06/22 02:37:49;;;;;;;6.07;1.52;;;;;;;11.48;100.00;100392.19;5199307;28;20499;-74
2022/06/22 02:40:25;;;;;;;6.10;1.60;;;;;;;11.37;100.00;100386.59;5200270;28;20088;-74
2022/06/22 02:45:45;;;;;;;4.38;1.10;;;;;;;11.72;100.00;100375.50;5204968;28;20083;-73
2022/06/22 02:48:26;;;;;;;5.45;1.00;;;;;;;11.76;99.86;100381.47;5203694;28;20021;-72
2022/06/22 02:51:06;;;;;;;1.80;1.00;;;;;;;11.72;100.00;100378.13;5203869;28;20464;-73
2022/06/22 02:53:40;;;;;;;3.55;1.20;;;;;;;11.69;98.88;100369.53;5203518;28;20021;-73
2022/06/22 02:56:17;;;;;;;12.68;1.50;;;;;;;11.34;100.00;100368.41;5204021;28;20179;-73
2022/06/22 02:58:49;;;;;;;6.45;1.42;;;;;;;11.23;100.00;100365.38;5200440;28;20025;-73
2022/06/22 03:01:26;;;;;;;3.60;1.38;;;;;;;11.27;100.00;100363.50;5202874;28;20042;-73
2022/06/22 03:04:05;;;;;;;5.38;1.50;;;;;;;10.84;100.00;100366.16;5202504;28;20115;-74
2022/06/22 03:06:41;;;;;;;3.10;1.38;;;;;;;11.12;100.00;100366.75;5203248;28;20030;-72
2022/06/22 03:09:11;;;;;;;5.53;1.38;;;;;;;11.21;100.00;100353.25;5199340;28;20096;-73
2022/06/22 03:11:45;;;;;;;2.33;1.20;;;;;;;11.18;100.00;100359.50;5203706;28;20112;-74
2022/06/22 03:14:19;;;;;;;3.13;1.50;;;;;;;11.23;100.00;100354.91;5203624;28;20029;-74
2022/06/22 03:16:56;;;;;;;6.72;1.73;;;;;;;11.52;100.00;100349.31;5203379;28;20048;-73
2022/06/22 03:19:32;;;;;;;1.88;1.20;;;;;;;11.54;100.00;100350.09;5202824;28;20024;-74
2022/06/22 03:22:03;;;;;;;8.25;1.30;;;;;;;11.64;100.00;100351.41;5203640;28;20045;-74
2022/06/22 03:24:41;;;;;;;3.17;1.20;;;;;;;11.90;100.00;100360.75;5203206;28;20029;-74
2022/06/22 03:27:20;;;;;;;5.70;1.20;;;;;;;11.85;100.00;100365.34;5199291;28;20026;-74
2022/06/22 03:30:02;;;;;;;4.05;1.15;;;;;;;11.51;100.00;100368.53;5203017;28;20078;-74
2022/06/22 03:32:39;;;;;;;5.95;1.25;;;;;;;11.45;100.00;100360.94;5203925;28;20022;-74
2022/06/22 03:35:13;;;;;;;4.10;1.23;;;;;;;11.49;100.00;100367.78;5203333;28;20059;-74
2022/06/22 03:37:51;;;;;;;3.10;1.33;;;;;;;11.53;100.00;100356.25;5199112;28;20039;-74
2022/06/22 03:40:29;;;;;;;4.45;1.10;;;;;;;11.39;100.00;100368.19;5202727;28;20029;-74
2022/06/22 03:43:18;;;;;;;4.07;1.17;;;;;;;11.21;100.00;100377.69;5201758;28;20041;-73
2022/06/22 03:45:53;;;;;;;4.13;1.20;;;;;;;11.62;100.00;100384.66;5203518;28;20503;-74
2022/06/22 03:48:38;;;;;;;4.55;1.20;;;;;;;11.43;100.00;100394.16;5202096;28;20095;-74
2022/06/22 03:51:18;;;;;;;5.33;1.37;;;;;;;11.72;100.00;100390.34;5202428;28;20025;-73
2022/06/22 03:54:01;;;;;;;2.03;1.10;;;;;;;11.92;100.00;100387.75;5199664;28;20268;-74
2022/06/22 03:56:35;;;;;;;5.25;1.58;;;;;;;11.66;100.00;100396.72;5202923;28;20025;-72
2022/06/22 03:59:07;;;;;;;3.88;1.50;;;;;;;11.67;100.00;100411.50;5203042;28;20032;-73
2022/06/22 04:01:38;;;;;;;3.83;1.48;;;;;;;11.76;100.00;100403.25;5202347;28;20033;-73
2022/06/22 04:04:08;;;;;;;2.90;1.30;;;;;;;11.57;100.00;100407.56;5201470;28;20108;-74
2022/06/22 04:06:45;;;;;;;4.80;1.52;;;;;;;11.56;100.00;100416.34;5201237;28;20043;-74
2022/06/22 04:09:22;;;;;;;3.20;1.23;;;;;;;11.82;100.00;100407.38;5198997;28;20022;-73
2022/06/22 04:12:01;;;;;;;7.28;1.48;;;;;;;12.18;100.00;100401.38;5202808;28;20037;-74
2022/06/22 04:14:43;;;;;;;7.68;3.10;;;;;;;12.35;100.00;100397.97;5202582;28;20415;-74
2022/06/22 04:17:23;;;;;;;7.50;3.10;;;;;;;12.14;100.00;100393.72;5199830;28;20021;-73
2022/06/22 04:20:04;;;;;;;10.60;2.33;;;;;;;11.98;100.00;100409.25;5199848;28;20491;-74
2022/06/22 04:22:40;;;;;;;7.60;1.90;;;;;;;12.09;100.00;100406.19;5200595;28;20427;-74
2022/06/22 04:25:24;;;;;;;6.57;1.70;;;;;;;12.27;100.00;100397.50;5201986;28;20026;-74
2022/06/22 04:27:56;;;;;;;6.13;1.60;;;;;;;12.48;100.00;100392.09;5201474;28;20022;-73
2022/06/22 04:30:33;;;;;;;6.60;1.30;;;;;;;12.52;100.00;100396.31;5197247;28;20483;-74
2022/06/22 04:33:11;;;;;;;9.52;1.73;;;;;;;12.42;100.00;100395.03;5202131;28;20673;-73
2022/06/22 04:35:53;;;;;;;10.27;1.70;;;;;;;12.54;100.00;100396.22;5202737;28;20059;-74
2022/06/22 04:38:36;;;;;;;4.97;1.55;;;;;;;12.95;100.00;100401.25;5201684;28;20167;-73
2022/06/22 04:41:35;;;;;;;5.90;1.65;;;;;;;14.19;100.00;100402.75;5201890;28;20075;-74
2022/06/22 04:44:13;;;;;;;6.18;1.55;;;;;;;14.59;95.99;100409.38;5199572;28;20040;-74
2022/06/22 04:46:49;;;;;;;5.00;1.45;;;;;;;14.34;100.00;100411.59;5197660;28;20055;-74
2022/06/22 04:49:33;;;;;;;7.50;2.00;;;;;;;17.28;88.71;100408.72;5200982;28;20032;-74
2022/06/22 04:52:15;;;;;;;10.43;1.55;;;;;;;19.92;78.25;100387.84;5201817;28;20025;-74
2022/06/22 04:54:50;;;;;;;6.05;1.17;;;;;;;22.32;68.57;100368.69;5198578;28;20030;-75
2022/06/22 04:57:27;;;;;;;9.63;1.75;;;;;;;20.66;70.42;100374.84;5201223;28;20383;-75
2022/06/22 05:00:00;;;;;;;8.10;1.27;;;;;;;19.86;73.88;100381.19;5200895;28;20044;-74
2022/06/22 05:02:36;;;;;;;10.18;1.45;;;;;;;20.37;71.66;100384.28;5199388;28;20044;-74
2022/06/22 05:05:14;;;;;;;8.00;1.50;;;;;;;21.84;67.63;100378.22;5200702;28;20467;-75
2022/06/22 05:07:52;;;;;;;5.57;1.15;;;;;;;22.85;65.86;100373.69;5197128;28;20371;-75
2022/06/22 05:10:42;;;;;;;4.85;1.17;;;;;;;21.54;70.43;100383.47;5200937;28;20029;-75
2022/06/22 05:13:36;;;;;;;4.30;1.38;;;;;;;23.72;64.96;100387.81;5199079;28;20021;-74
2022/06/22 05:16:11;;;;;;;5.25;1.55;;;;;;;23.92;62.92;100383.31;5188621;28;20041;-75
2022/06/22 05:18:43;;;;;;;4.32;1.60;;;;;;;25.37;60.66;100377.06;5196936;28;20022;-75
2022/06/22 05:21:32;;;;;;;3.78;1.48;;;;;;;26.33;58.71;100383.19;5200630;28;20029;-74
2022/06/22 05:24:26;;;;;;;6.32;1.80;;;;;;;26.36;58.37;100383.69;5201853;28;20177;-74
2022/06/22 05:26:59;;;;;;;5.60;1.80;;;;;;;26.97;56.40;100387.84;5197983;28;20037;-74
2022/06/22 05:29:36;;;;;;;7.97;2.00;;;;;;;27.50;55.15;100396.41;5200330;28;20032;-74
2022/06/22 05:32:12;;;;;;;6.32;1.98;;;;;;;26.78;57.15;100396.16;5199580;28;20497;-74
2022/06/22 05:34:45;;;;;;;11.00;2.05;;;;;;;26.91;55.59;100401.91;5200814;28;20040;-74
2022/06/22 05:37:31;;;;;;;5.93;1.70;;;;;;;27.56;56.76;100406.47;5198933;28;20044;-74
2022/06/22 05:40:03;;;;;;;3.53;1.80;;;;;;;26.18;59.56;100409.72;5199652;28;20037;-74
2022/06/22 05:42:34;;;;;;;4.50;1.63;;;;;;;26.14;59.80;100408.34;5200030;28;20112;-74
2022/06/22 05:45:22;;;;;;;6.55;1.80;;;;;;;24.85;62.77;100410.75;5200862;28;20026;-73
2022/06/22 05:47:55;;;;;;;11.48;2.20;;;;;;;24.48;63.88;100416.19;5197835;28;20026;-74
2022/06/22 05:51:11;;;;;;;7.55;2.10;;;;;;;24.06;64.55;100412.25;5199591;28;20029;-74
2022/06/22 05:53:49;;;;;;;7.55;2.35;;;;;;;23.68;65.05;100412.28;5153061;28;20030;-74
2022/06/22 05:56:37;;;;;;;4.18;2.50;;;;;;;22.53;66.71;100409.47;5197800;28;20268;-74
2022/06/22 05:59:13;;;;;;;5.32;2.53;;;;;;;23.00;67.07;100402.47;5200135;28;20025;-73
2022/06/22 06:01:46;;;;;;;7.50;2.60;;;;;;;22.32;68.79;100406.84;5196515;28;20463;-74
2022/06/22 06:04:40;;;;;;;8.30;2.78;;;;;;;22.14;71.21;100418.22;5199096;28;20065;-73
2022/06/22 06:07:18;;;;;;;4.70;2.50;;;;;;;22.15;70.68;100417.22;5194597;28;20029;-74
2022/06/22 06:09:48;;;;;;;8.02;2.58;;;;;;;21.91;72.39;100424.66;5197893;28;20029;-73
2022/06/22 06:12:25;;;;;;;6.10;2.50;;;;;;;22.31;70.83;100421.13;5198649;28;20044;-74
2022/06/22 06:14:55;;;;;;;8.60;2.90;;;;;;;21.29;74.25;100427.19;5198565;28;20120;-74
2022/06/22 06:17:35;;;;;;;7.65;2.95;;;;;;;21.01;74.50;100425.06;5197297;28;20139;-73
2022/06/22 06:20:15;;;;;;;4.90;2.40;;;;;;;21.45;71.90;100419.66;5197860;28;20143;-73
2022/06/22 06:22:48;;;;;;;5.28;2.17;;;;;;;22.17;72.81;100417.94;5195604;28;20048;-74
2022/06/22 06:28:26;;;;;;;7.80;2.15;;;;;;;23.30;68.69;100412.25;5198369;28;20260;-74
2022/06/22 06:31:05;;;;;;;6.32;2.13;;;;;;;22.96;68.23;100419.72;5198736;28;20585;-73
2022/06/22 06:33:38;;;;;;;8.73;2.38;;;;;;;22.18;72.05;100438.28;5201013;28;20379;-73
2022/06/22 06:36:24;;;;;;;6.03;2.33;;;;;;;22.78;71.30;100436.50;5199326;28;20026;-73
2022/06/22 06:39:02;;;;;;;6.93;2.47;;;;;;;23.86;66.63;100426.63;5197878;28;20029;-74
2022/06/22 06:42:03;;;;;;;7.93;1.90;;;;;;;22.90;69.83;100420.28;5200544;28;20032;-73
2022/06/22 06:44:42;;;;;;;4.72;2.22;;;;;;;24.29;65.77;100417.13;5198771;28;20029;-73
2022/06/22 06:47:19;;;;;;;4.95;2.15;;;;;;;23.92;66.47;100405.53;5199887;28;20029;-74
2022/06/22 06:50:16;;;;;;;7.90;2.20;;;;;;;23.08;68.77;100401.78;5199553;28;20491;-73
2022/06/22 06:53:24;;;;;;;7.93;2.30;;;;;;;24.45;65.91;100401.31;5189754;28;20380;-74
2022/06/22 06:56:09;;;;;;;6.30;1.90;;;;;;;23.82;68.12;100398.47;5176418;28;20080;-74
2022/06/22 06:58:48;;;;;;;5.28;1.90;;;;;;;25.25;64.19;100391.63;5175825;28;20034;-74
2022/06/22 07:01:21;;;;;;;6.03;1.90;;;;;;;25.16;64.21;100392.53;5190667;28;20041;-74
2022/06/22 07:03:57;;;;;;;6.95;1.98;;;;;;;25.85;62.29;100394.41;5198805;28;20449;-74
2022/06/22 07:06:28;;;;;;;5.57;1.77;;;;;;;24.82;63.96;100396.81;5199320;28;20040;-73
2022/06/22 07:09:11;;;;;;;4.13;1.80;;;;;;;25.21;62.60;100403.66;5199478;28;20029;-75
2022/06/22 07:11:51;;;;;;;6.03;1.85;;;;;;;26.94;58.98;100382.81;5198356;28;20105;-72
2022/06/22 07:14:28;;;;;;;5.85;2.00;;;;;;;26.79;59.91;100387.13;5199287;28;20056;-74
2022/06/22 07:17:03;;;;;;;8.85;1.80;;;;;;;27.57;58.59;100386.66;5198022;28;20100;-73
2022/06/22 07:19:52;;;;;;;3.70;1.80;;;;;;;27.52;58.28;100389.03;5199175;28;20071;-74
2022/06/22 07:22:42;;;;;;;6.63;1.70;;;;;;;27.50;58.97;100393.72;5197348;28;20064;-74
2022/06/22 07:25:19;;;;;;;6.05;1.90;;;;;;;27.74;57.95;100396.44;5197027;28;20104;-74
2022/06/22 07:28:32;;;;;;;4.13;1.67;;;;;;;26.59;58.56;100392.91;5203496;28;20013;-73
2022/06/22 07:31:23;;;;;;;4.18;1.50;;;;;;;27.12;58.51;100380.88;5202203;28;20033;-74
2022/06/22 07:34:31;;;;;;;4.82;1.58;;;;;;;27.17;58.72;100388.44;5201025;28;20025;-74
2022/06/22 07:37:15;;;;;;;5.32;1.60;;;;;;;28.55;56.70;100391.78;5191183;28;20046;-74
2022/06/22 07:39:53;;;;;;;4.32;1.65;;;;;;;27.02;59.65;100395.41;5199450;28;20056;-74
2022/06/22 07:42:24;;;;;;;7.95;1.77;;;;;;;27.69;56.04;100388.03;5202972;28;20029;-74
2022/06/22 07:44:54;;;;;;;5.15;1.63;;;;;;;28.01;55.87;100393.41;5202856;28;20542;-74
2022/06/22 07:47:55;;;;;;;2.95;1.20;;;;;;;29.07;53.50;100399.19;5202939;28;20021;-74
2022/06/22 07:50:29;;;;;;;13.90;1.45;;;;;;;29.57;51.45;100383.41;5201580;28;20544;-74
2022/06/22 07:53:12;;;;;;;5.28;1.25;;;;;;;28.90;52.11;100378.75;5203306;28;20122;-74
2022/06/22 07:55:58;;;;;;;9.50;1.40;;;;;;;29.17;52.72;100376.41;5199396;28;20524;-71
2022/06/22 07:58:45;;;;;;;5.28;1.48;;;;;;;29.34;52.48;100390.59;5201855;28;20056;-72
2022/06/22 08:01:29;;;;;;;5.07;1.60;;;;;;;29.30;52.01;100383.88;5199840;28;20033;-74
2022/06/22 08:04:05;;;;;;;3.50;1.40;;;;;;;29.04;53.16;100381.50;5200731;28;20060;-75
2022/06/22 08:06:42;;;;;;;2.53;1.08;;;;;;;30.55;51.48;100377.72;5202032;28;20040;-74
2022/06/22 08:09:17;;;;;;;3.28;1.40;;;;;;;30.09;51.35;100382.44;5198513;28;20268;-74
2022/06/22 08:12:16;;;;;;;4.40;1.42;;;;;;;30.12;50.05;100390.16;5202575;28;20029;-75
2022/06/22 08:14:52;;;;;;;5.53;1.50;;;;;;;29.88;51.37;100379.59;5198628;28;20049;-74
2022/06/22 08:17:41;;;;;;;6.22;1.35;;;;;;;29.22;53.50;100378.56;5200698;28;20039;-74
2022/06/22 08:20:16;;;;;;;6.32;1.58;;;;;;;31.37;50.21;100376.31;5199315;28;20454;-73
2022/06/22 08:22:48;;;;;;;5.63;1.50;;;;;;;27.70;55.85;100384.31;5198705;28;20044;-74
2022/06/22 08:25:21;;;;;;;5.97;1.60;;;;;;;29.29;53.02;100375.00;5202011;28;20044;-74
2022/06/22 08:27:55;;;;;;;4.15;1.60;;;;;;;29.82;51.52;100379.47;5200187;28;20021;-74
2022/06/22 08:30:26;;;;;;;5.18;1.58;;;;;;;28.80;53.67;100378.06;5205523;28;20036;-74
2022/06/22 08:33:08;;;;;;;4.38;1.38;;;;;;;29.39;52.12;100369.38;5201163;28;20025;-74
2022/06/22 08:35:45;;;;;;;6.85;1.60;;;;;;;29.38;52.56;100368.50;5202000;28;20053;-74
2022/06/22 08:38:26;;;;;;;5.35;1.88;;;;;;;31.09;50.23;100359.16;5198262;28;20022;-73
2022/06/22 08:41:09;;;;;;;8.60;1.65;;;;;;;32.69;47.96;100363.72;5201736;28;20041;-74
2022/06/22 08:43:48;;;;;;;15.25;2.03;;;;;;;32.78;46.64;100373.31;5201467;28;20072;-75
2022/06/22 08:46:37;;;;;;;4.47;1.40;;;;;;;33.17;46.37;100366.19;5197348;28;20112;-75
2022/06/22 08:49:13;;;;;;;13.82;1.65;;;;;;;32.29;46.45;100362.63;5200751;28;20111;-74
2022/06/22 08:51:59;;;;;;;5.75;1.45;;;;;;;31.93;47.27;100369.19;5200911;28;20415;-74
2022/06/22 08:54:59;;;;;;;6.43;1.60;;;;;;;32.49;46.82;100368.13;5200968;28;20645;-74
2022/06/22 08:58:05;;;;;;;5.00;1.10;;;;;;;32.92;43.34;100356.09;5199100;28;20041;-74
2022/06/22 09:00:38;;;;;;;5.90;1.25;;;;;;;32.04;43.23;100364.06;5199346;28;20069;-75
2022/06/22 09:03:26;;;;;;;10.38;1.30;;;;;;;32.10;42.72;100368.72;5201187;28;20746;-74
2022/06/22 09:05:59;;;;;;;3.17;1.08;;;;;;;32.88;41.72;100368.38;5199446;28;20041;-74
2022/06/22 09:09:21;;;;;;;4.97;1.27;;;;;;;32.58;41.09;100369.66;5200138;28;20144;-75
2022/06/22 09:12:19;;;;;;;5.53;1.20;;;;;;;32.64;41.38;100353.44;5167049;28;20033;-75
2022/06/22 09:15:31;;;;;;;10.30;1.25;;;;;;;32.59;43.09;100363.19;5213529;28;20057;-74
2022/06/22 09:18:27;;;;;;;4.38;1.25;;;;;;;30.47;45.18;100372.44;5193259;28;20464;-74
2022/06/22 09:21:03;;;;;;;3.35;1.20;;;;;;;29.66;45.71;100371.53;5198907;28;20375;-74
2022/06/22 09:23:40;;;;;;;3.97;1.20;;;;;;;30.94;46.82;100373.72;5200889;28;20033;-74
2022/06/22 09:26:23;;;;;;;11.63;1.42;;;;;;;30.85;47.77;100372.16;5196933;28;20025;-71
2022/06/22 09:29:02;;;;;;;3.20;1.05;;;;;;;31.07;46.06;100372.03;5201188;28;20100;-74
2022/06/22 09:32:15;;;;;;;4.68;1.38;;;;;;;31.76;43.71;100371.34;5200332;28;20033;-75
2022/06/22 09:34:57;;;;;;;6.57;1.23;;;;;;;31.80;44.03;100374.47;5197353;28;20463;-74
2022/06/22 09:37:39;;;;;;;4.65;1.52;;;;;;;30.52;43.94;100370.84;5200076;28;20548;-74
2022/06/22 09:40:34;;;;;;;4.55;1.42;;;;;;;31.15;45.09;100365.69;5200882;28;20494;-75
2022/06/22 09:43:35;;;;;;;6.17;1.37;;;;;;;31.89;43.71;100368.72;5199795;28;20567;-74
2022/06/22 09:46:24;;;;;;;5.47;1.50;;;;;;;30.25;44.76;100384.16;5199481;28;20518;-75
2022/06/22 09:49:04;;;;;;;3.10;1.17;;;;;;;32.09;43.60;100385.97;5199438;28;20029;-74
2022/06/22 09:51:45;;;;;;;3.42;1.00;;;;;;;32.16;43.29;100394.97;5200262;28;20517;-75
2022/06/22 09:57:48;;;;;;;3.40;1.13;;;;;;;31.22;43.04;100388.22;5195288;28;20484;-74
2022/06/22 10:00:23;;;;;;;4.63;1.10;;;;;;;30.22;45.01;100393.44;5202769;28;20068;-73
2022/06/22 10:03:17;;;;;;;3.25;1.30;;;;;;;31.17;43.95;100391.47;5201180;28;20021;-74
2022/06/22 10:06:11;;;;;;;5.68;1.10;;;;;;;31.76;43.69;100387.56;5198157;28;20025;-75
2022/06/22 10:09:08;;;;;;;4.28;1.38;;;;;;;31.41;43.34;100393.84;5199160;28;20028;-74
2022/06/22 10:11:41;;;;;;;3.85;1.17;;;;;;;30.31;44.86;100400.44;5197213;28;20037;-73
2022/06/22 10:14:26;;;;;;;4.43;1.30;;;;;;;28.93;46.18;100403.44;5211363;28;20021;-74
2022/06/22 10:17:16;;;;;;;7.05;1.45;;;;;;;27.37;49.68;100398.72;5199584;28;20736;-73
2022/06/22 10:19:49;;;;;;;5.55;1.40;;;;;;;26.56;51.88;100400.44;5195760;28;20052;-73
2022/06/22 10:22:58;;;;;;;4.40;1.50;;;;;;;26.43;50.04;100389.25;5198068;28;20068;-73
2022/06/22 10:26:01;;;;;;;5.82;1.20;;;;;;;26.27;52.19;100394.53;5198343;28;20045;-73
2022/06/22 10:28:53;;;;;;;6.10;1.13;;;;;;;26.38;50.27;100386.22;5197836;28;20040;-73
2022/06/22 10:31:32;;;;;;;3.35;1.13;;;;;;;26.53;53.29;100390.03;5195663;28;20033;-73
2022/06/22 10:34:33;;;;;;;3.67;1.05;;;;;;;26.56;50.08;100379.84;5199432;28;20430;-72
2022/06/22 10:37:12;;;;;;;3.85;1.30;;;;;;;25.64;53.51;100377.78;5197980;28;20064;-73
2022/06/22 10:40:02;;;;;;;5.95;1.05;;;;;;;26.37;53.33;100374.66;5195088;28;20334;-73
2022/06/22 10:45:34;;;;;;;4.63;1.38;;;;;;;26.71;51.35;100370.16;5196791;28;20553;-73
2022/06/22 10:48:46;;;;;;;3.40;1.15;;;;;;;26.70;51.25;100381.06;5196499;28;20083;-73
2022/06/22 10:51:57;;;;;;;3.72;1.23;;;;;;;27.04;49.54;100379.97;5197754;28;20482;-73
2022/06/22 10:54:53;;;;;;;3.65;1.05;;;;;;;26.88;51.05;100375.41;5197352;28;20071;-73
2022/06/22 10:57:50;;;;;;;3.70;0.95;;;;;;;27.19;49.33;100373.00;5195962;28;20033;-73
2022/06/22 11:00:43;;;;;;;2.35;1.00;;;;;;;26.90;49.45;100373.41;5195563;28;20033;-73
2022/06/22 11:03:38;;;;;;;6.25;1.27;;;;;;;26.96;48.46;100372.75;5202894;28;20517;-73
2022/06/22 11:06:28;;;;;;;3.75;1.40;;;;;;;26.73;50.16;100377.03;5202212;28;20461;-73
2022/06/22 11:09:29;;;;;;;6.47;1.58;;;;;;;26.40;51.01;100376.19;5200479;28;20029;-73
2022/06/22 11:12:08;;;;;;;3.38;1.00;;;;;;;26.81;50.29;100378.91;5203178;28;20037;-73
2022/06/22 11:15:03;;;;;;;4.93;1.20;;;;;;;27.01;50.13;100373.13;5203030;28;20029;-73
2022/06/22 11:17:45;;;;;;;3.92;1.17;;;;;;;27.03;49.06;100379.16;5201848;28;20475;-73
2022/06/22 11:20:40;;;;;;;4.28;1.10;;;;;;;27.25;49.78;100385.78;5200362;28;20471;-72
2022/06/22 11:23:13;;;;;;;3.45;1.00;;;;;;;27.20;50.28;100380.91;5202878;28;20040;-73
2022/06/22 11:32:10;;;;;;;3.83;1.00;;;;;;;26.33;50.65;100383.19;5200750;28;20096;-73
2022/06/22 11:34:59;;;;;;;5.10;1.17;;;;;;;26.44;50.89;100386.44;5197633;28;20419;-73
2022/06/22 11:37:42;;;;;;;5.07;1.20;;;;;;;26.00;52.94;100386.66;5201609;28;20038;-72
2022/06/22 11:40:24;;;;;;;3.95;1.30;;;;;;;26.13;51.08;100393.28;5197840;28;20033;-73
2022/06/22 11:43:00;;;;;;;3.30;1.25;;;;;;;26.11;52.11;100378.34;5201352;28;20037;-73
2022/06/22 11:48:47;;;;;;;3.47;1.00;;;;;;;25.27;52.63;100400.34;5198917;28;20120;-73
2022/06/22 11:51:40;;;;;;;3.97;1.10;;;;;;;25.23;52.88;100388.28;5199305;28;20371;-73
2022/06/22 11:54:25;;;;;;;3.88;1.10;;;;;;;25.34;53.21;100385.38;5198562;28;20021;-73
2022/06/22 11:56:55;;;;;;;3.53;1.10;;;;;;;25.45;53.75;100385.19;5199860;28;20511;-73
2022/06/22 11:59:28;;;;;;;5.20;1.20;;;;;;;25.34;54.12;100382.72;5202228;28;20029;-74
2022/06/22 12:02:09;;;;;;;2.80;1.10;;;;;;;25.41;54.91;100367.72;5201040;28;20129;-73
2022/06/22 12:05:03;;;;;;;3.95;1.00;;;;;;;25.72;52.78;100361.81;5202574;28;20083;-73
2022/06/22 12:08:06;;;;;;;5.18;1.23;;;;;;;25.67;53.07;100364.09;5200927;28;20029;-73
2022/06/22 12:10:40;;;;;;;3.78;1.10;;;;;;;25.48;51.63;100358.91;5201386;28;20025;-73
2022/06/22 12:13:22;;;;;;;4.13;1.25;;;;;;;25.62;52.92;100349.47;5200757;28;20021;-71
2022/06/22 12:16:22;;;;;;;3.95;1.00;;;;;;;25.71;51.70;100353.91;5200276;28;20030;-73
2022/06/22 12:19:11;;;;;;;7.35;1.23;;;;;;;25.74;51.95;100351.78;5199309;28;20055;-73
2022/06/22 12:21:57;;;;;;;2.78;1.00;;;;;;;25.62;51.38;100338.78;5202150;28;20029;-73
2022/06/22 12:24:37;;;;;;;;;;;;;;;25.84;50.33;100332.94;5202996;28;20075;-73
2022/06/22 12:27:21;;;;;;;3.13;0.95;;;;;;;25.64;52.07;100334.13;5201196;28;19917;-73
2022/06/22 12:30:20;;;;;;;3.92;1.20;;;;;;;25.58;51.51;100332.06;5198870;28;20029;-74
2022/06/22 12:33:08;;;;;;;2.55;0.93;;;;;;;25.61;52.49;100331.75;5199695;28;20065;-73
2022/06/22 12:35:55;;;;;;;6.00;1.27;;;;;;;25.67;53.93;100325.78;5201588;28;20158;-73
2022/06/22 12:38:37;;;;;;;2.45;1.08;;;;;;;25.63;52.01;100321.75;5197843;28;20059;-73
2022/06/22 12:41:20;;;;;;;4.78;1.10;;;;;;;25.13;54.28;100315.25;5201985;28;20033;-74
2022/06/22 12:44:24;;;;;;;3.75;1.38;;;;;;;25.63;53.50;100309.19;5198983;28;20026;-73
2022/06/22 12:46:57;;;;;;;3.22;1.10;;;;;;;25.34;54.43;100316.63;5198917;28;20270;-73
2022/06/22 12:49:50;;;;;;;2.58;1.08;;;;;;;25.54;54.13;100309.28;5201381;28;20021;-73
2022/06/22 12:52:26;;;;;;;3.65;1.25;;;;;;;26.01;53.35;100302.59;5198696;28;20025;-73
2022/06/22 12:55:21;;;;;;;4.78;1.33;;;;;;;25.45;53.56;100310.22;5201316;28;20028;-71